ADDS METAR Data INFO
IDs: Format: Raw Decoded Include TAF

Data at: 0052 UTC 22 Oct 2017

KCGC 220035Z AUTO 07004KT 10SM CLR 25/19 A3015 RMK AO2
KCGC 220015Z AUTO 07006KT 10SM CLR 25/18 A3014 RMK AO2
KCGC 212355Z AUTO 08006KT 10SM CLR 25/18 A3014 RMK AO2
KCGC 212335Z AUTO 08006KT 10SM CLR 25/18 A3014 RMK AO2
KCGC 212315Z AUTO 07007KT 10SM CLR 25/18 A3013 RMK AO2
KCGC 212255Z AUTO 07006KT 10SM CLR 26/18 A3013 RMK AO2
KCGC 212235Z AUTO 08004KT 10SM CLR 26/18 A3013 RMK AO2
KCGC 212215Z AUTO 09008KT 10SM CLR 27/18 A3012 RMK AO2
KCGC 212155Z AUTO 08009KT 10SM CLR 27/18 A3012 RMK AO2
KCGC 212135Z AUTO 09011G16KT 10SM CLR 28/18 A3011 RMK AO2
KCGC 212115Z AUTO 10007KT 10SM CLR 29/18 A3011 RMK AO2
KCGC 212055Z AUTO 11010G15KT 080V140 10SM CLR 29/18 A3011 RMK AO2
KCGC 212035Z AUTO 08012G18KT 10SM SCT050 30/17 A3010 RMK AO2
KCGC 212015Z AUTO 09008KT 10SM SCT050 29/17 A3010 RMK AO2
KCGC 211955Z AUTO 07011G17KT 10SM BKN050 31/17 A3010 RMK AO2
KCGC 211935Z AUTO 11010G15KT 10SM SCT050 31/17 A3011 RMK AO2
KCGC 211915Z AUTO 08012G16KT 10SM BKN050 30/17 A3011 RMK AO2
KCGC 211855Z AUTO 10009KT 10SM SCT050 30/17 A3011 RMK AO2
KCGC 211835Z AUTO 09009G17KT 10SM SCT050 30/17 A3012 RMK AO2
KCGC 211815Z AUTO 07009KT 050V110 10SM SCT049 30/17 A3012 RMK AO2 LTG DSNT S
KCGC 211755Z AUTO 09011G18KT 10SM SCT049 30/17 A3013 RMK AO2
KCGC 211735Z AUTO 07013G20KT 10SM SCT047 29/17 A3014 RMK AO2
KCGC 211715Z AUTO 06011G16KT 10SM SCT045 29/17 A3015 RMK AO2
KCGC 211655Z AUTO 10009G17KT 10SM SCT043 29/17 A3015 RMK AO2
KCGC 211635Z AUTO 12010G17KT 10SM SCT041 28/17 A3016 RMK AO2
KCGC 211615Z AUTO 08011G15KT 10SM SCT038 28/18 A3017 RMK AO2
KCGC 211555Z AUTO 07012G15KT 10SM BKN036 28/19 A3017 RMK AO2
KCGC 211535Z AUTO 09012G17KT 10SM BKN034 27/19 A3017 RMK AO2
KCGC 211515Z AUTO 08008G17KT 10SM SCT030 28/20 A3017 RMK AO2
KCGC 211455Z AUTO 09013G17KT 10SM SCT029 27/20 A3017 RMK AO2
KCGC 211435Z AUTO 08011KT 10SM CLR 26/20 A3017 RMK AO2
KCGC 211415Z AUTO 08008G14KT 10SM CLR 26/20 A3017 RMK AO2
KCGC 211355Z AUTO 08009KT 10SM CLR 25/20 A3017 RMK AO2
KCGC 211335Z AUTO 07007KT 10SM CLR 24/20 A3017 RMK AO2
KCGC 211315Z AUTO 07006KT 10SM CLR 22/20 A3017 RMK AO2
KCGC 211255Z AUTO 07004KT 10SM CLR 21/20 A3015 RMK AO2
KCGC 211235Z AUTO 06004KT 10SM CLR 20/19 A3015 RMK AO2
KCGC 211215Z AUTO 07003KT 10SM CLR 20/19 A3014 RMK AO2
KCGC 211155Z AUTO 00000KT 10SM CLR 19/18 A3014 RMK AO2
KCGC 211135Z AUTO 00000KT 10SM CLR 18/18 A3013 RMK AO2
KCGC 211115Z AUTO 06003KT 10SM CLR 18/18 A3013 RMK AO2
KCGC 211055Z AUTO 06003KT 10SM CLR 18/18 A3012 RMK AO2
KCGC 211035Z AUTO 06003KT 10SM CLR 18/17 A3012 RMK AO2
KCGC 211015Z AUTO 00000KT 10SM CLR 18/18 A3012 RMK AO2
KCGC 210955Z AUTO 00000KT 10SM CLR 18/17 A3011 RMK AO2
KCGC 210935Z AUTO 00000KT 10SM CLR 18/18 A3011 RMK AO2
KCGC 210915Z AUTO 00000KT 10SM SCT029 18/18 A3010 RMK AO2
KCGC 210855Z AUTO 00000KT 10SM SCT029 19/18 A3010 RMK AO2
KCGC 210835Z AUTO 00000KT 10SM SCT027 19/18 A3009 RMK AO2
KCGC 210815Z AUTO 00000KT 10SM SCT027 19/17 A3009 RMK AO2
KCGC 210755Z AUTO 00000KT 10SM SCT025 19/17 A3009 RMK AO2
KCGC 210735Z AUTO 05003KT 10SM SCT025 19/17 A3010 RMK AO2
KCGC 210715Z AUTO 00000KT 10SM CLR 19/17 A3010 RMK AO2
KCGC 210655Z AUTO 00000KT 10SM CLR 19/17 A3010 RMK AO2
KCGC 210635Z AUTO 06003KT 10SM CLR 20/17 A3011 RMK AO2
KCGC 210615Z AUTO 00000KT 10SM CLR 20/17 A3011 RMK AO2
KCGC 210555Z AUTO 05004KT 10SM SCT030 SCT035 SCT045 20/17 A3011 RMK AO2
KCGC 210535Z AUTO 06003KT 10SM SCT030 SCT035 20/17 A3012 RMK AO2
KCGC 210515Z AUTO 05003KT 10SM CLR 19/17 A3012 RMK AO2
KCGC 210455Z AUTO 00000KT 10SM CLR 20/17 A3012 RMK AO2
KCGC 210435Z AUTO 06003KT 10SM CLR 20/17 A3013 RMK AO2
KCGC 210415Z AUTO 00000KT 10SM CLR 20/17 A3013 RMK AO2
KCGC 210355Z AUTO 00000KT 10SM CLR 19/17 A3014 RMK AO2
KCGC 210335Z AUTO 00000KT 10SM CLR 20/17 A3014 RMK AO2
KCGC 210315Z AUTO 00000KT 10SM CLR 21/17 A3014 RMK AO2
KCGC 210255Z AUTO 00000KT 10SM CLR 21/17 A3014 RMK AO2
KCGC 210235Z AUTO 06003KT 10SM CLR 21/17 A3013 RMK AO2
KCGC 210215Z AUTO 00000KT 10SM CLR 21/17 A3013 RMK AO2
KCGC 210155Z AUTO 06003KT 10SM CLR 21/17 A3012 RMK AO2
KCGC 210135Z AUTO 07004KT 10SM CLR 22/17 A3012 RMK AO2
KCGC 210115Z AUTO 07005KT 10SM CLR 22/17 A3011 RMK AO2
KCGC 210055Z AUTO 07006KT 10SM CLR 23/17 A3011 RMK AO2
KCGC 210035Z AUTO 06007KT 10SM CLR 23/17 A3011 RMK AO2
KCGC 210015Z AUTO 06006KT 10SM CLR 23/16 A3011 RMK AO2
KCGC 202355Z AUTO 07005KT 10SM CLR 23/16 A3010 RMK AO2
KCGC 202335Z AUTO 08004KT 10SM CLR 24/16 A3009 RMK AO2
KCGC 202315Z AUTO 08005KT 10SM CLR 25/16 A3009 RMK AO2
KCGC 202255Z AUTO 07007KT 10SM CLR 26/16 A3009 RMK AO2
KCGC 202235Z AUTO 08010KT 10SM CLR 27/16 A3008 RMK AO2
KCGC 202215Z AUTO 07012G16KT 10SM CLR 27/17 A3008 RMK AO2
KCGC 202155Z AUTO 09010G18KT 10SM CLR 28/17 A3007 RMK AO2
KCGC 202135Z AUTO 08012G19KT 10SM SCT046 SCT060 28/18 A3007 RMK AO2
KCGC 202115Z AUTO 07013G17KT 10SM SCT044 SCT055 29/18 A3007 RMK AO2
KCGC 202055Z AUTO 07012G19KT 10SM SCT047 BKN055 29/18 A3007 RMK AO2
KCGC 202035Z AUTO 07010KT 10SM BKN055 28/18 A3007 RMK AO2
KCGC 202015Z AUTO 09009KT 10SM SCT055 31/17 A3007 RMK AO2
KCGC 201955Z AUTO 08011G15KT 10SM CLR 30/16 A3007 RMK AO2
KCGC 201935Z AUTO 08012G19KT 10SM CLR 31/16 A3007 RMK AO2
KCGC 201915Z AUTO 06010G17KT 10SM SCT050 30/16 A3007 RMK AO2
KCGC 201855Z AUTO 08012G18KT 10SM SCT050 30/17 A3008 RMK AO2
KCGC 201835Z AUTO 07012G22KT 10SM SCT050 30/17 A3008 RMK AO2
KCGC 201815Z AUTO 07012G19KT 10SM CLR 30/17 A3009 RMK AO2
KCGC 201755Z AUTO 07011KT 10SM SCT049 30/16 A3010 RMK AO2
KCGC 201735Z AUTO 06011G21KT 10SM SCT049 30/16 A3011 RMK AO2
KCGC 201715Z AUTO 07013G20KT 10SM SCT047 29/16 A3013 RMK AO2
KCGC 201655Z AUTO 09013G17KT 10SM CLR 28/17 A3014 RMK AO2
KCGC 201635Z AUTO 08012G18KT 10SM SCT040 28/18 A3014 RMK AO2
KCGC 201615Z AUTO 06013G18KT 10SM SCT038 BKN044 28/17 A3015 RMK AO2
KCGC 201555Z AUTO 05009G14KT 10SM SCT033 BKN043 27/19 A3015 RMK AO2
KCGC 201535Z AUTO 06012G17KT 10SM SCT033 SCT041 27/19 A3016 RMK AO2
KCGC 201515Z AUTO 06010G15KT 10SM SCT036 SCT043 27/19 A3016 RMK AO2
KCGC 201455Z AUTO 06011KT 10SM SCT033 SCT041 27/20 A3017 RMK AO2
KCGC 201435Z AUTO 05007KT 10SM SCT033 26/20 A3017 RMK AO2
KCGC 201415Z AUTO 08009KT 10SM SCT035 25/19 A3017 RMK AO2
KCGC 201355Z AUTO 06009KT 10SM SCT035 25/19 A3017 RMK AO2
KCGC 201335Z AUTO 05008KT 10SM SCT033 24/20 A3017 RMK AO2
KCGC 201315Z AUTO 06005KT 10SM SCT033 23/20 A3017 RMK AO2
KCGC 201255Z AUTO 06006KT 10SM SCT033 22/20 A3016 RMK AO2